Terminal Aerodrome Forecast
Issued by NWS Sioux Falls, SD

Home | Current Version | Previous Version | Graphics & Text | Print | Product List | Glossary On
Versions: 1 2 3 4 5 6 7 8 9 10 11 12 13 14 15
000
FTUS43 KFSD 261126
TAFHON
TAF
KHON 261126Z 2612/2712 32006KT P6SM BKN150
     FM261700 35007KT P6SM BKN040
     FM262100 36012KT P6SM BKN050
     FM270200 VRB05KT P6SM BKN200=

USA.gov is the U.S. government's official web portal to all federal, state and local government web resources and services.